createdAt,value
2022-10-17T00:04:40.217Z,8.95
2022-10-17T00:10:01.035Z,6.97
2022-10-17T00:15:22.382Z,7.53
2022-10-17T00:20:43.184Z,14.20
2022-10-17T00:26:06.295Z,14.68
2022-10-17T00:31:27.102Z,9.63
2022-10-17T00:36:47.659Z,6.50
2022-10-17T00:42:12.869Z,16.30
2022-10-17T00:47:34.770Z,11.25
2022-10-17T00:53:00.442Z,16.55
2022-10-17T00:58:21.581Z,11.15
2022-10-17T01:03:49.139Z,15.90
2022-10-17T01:09:09.821Z,8.38
2022-10-17T01:15:19.131Z,11.52
2022-10-17T01:21:07.564Z,5.35
2022-10-17T01:26:55.043Z,15.77
2022-10-17T01:32:19.959Z,12.25
2022-10-17T01:43:19.851Z,8.40
2022-10-17T01:48:43.932Z,7.82
2022-10-17T01:54:12.310Z,14.30
2022-10-17T01:59:42.376Z,10.52
2022-10-17T02:05:04.045Z,22.13
2022-10-17T02:11:03.430Z,16.48
2022-10-17T02:16:42.787Z,21.35
2022-10-17T02:22:08.986Z,14.57
2022-10-17T02:28:04.098Z,12.65
2022-10-17T02:33:41.314Z,7.60
2022-10-17T02:39:05.379Z,13.85
2022-10-17T02:44:28.265Z,14.65
2022-10-17T02:49:51.937Z,17.70
2022-10-17T02:55:21.646Z,11.95
2022-10-17T03:00:43.767Z,16.80
2022-10-17T03:06:04.515Z,16.33
2022-10-17T03:11:25.536Z,13.20
2022-10-17T03:16:46.239Z,9.60
2022-10-17T03:22:08.741Z,9.15
2022-10-17T03:27:30.935Z,8.23
2022-10-17T03:32:51.889Z,9.38
2022-10-17T03:38:12.611Z,14.00
2022-10-17T03:43:33.175Z,13.80
2022-10-17T03:48:54.859Z,10.95
2022-10-17T03:54:16.038Z,10.10
2022-10-17T03:59:36.965Z,20.98
2022-10-17T04:05:07.300Z,6.03
2022-10-17T04:10:28.326Z,8.57
2022-10-17T04:16:10.343Z,11.73
2022-10-17T04:21:35.972Z,11.07
2022-10-17T04:27:00.300Z,13.93
2022-10-17T04:32:25.669Z,9.07
2022-10-17T04:37:54.483Z,15.18
2022-10-17T04:43:15.710Z,9.55
2022-10-17T04:48:39.884Z,11.13
2022-10-17T04:54:00.787Z,13.68
2022-10-17T04:59:21.787Z,8.95
2022-10-17T05:04:49.125Z,9.70
2022-10-17T05:10:11.053Z,7.60
2022-10-17T05:15:34.713Z,11.80
2022-10-17T05:20:56.198Z,11.77
2022-10-17T05:26:18.371Z,14.50
2022-10-17T05:31:38.862Z,6.85
2022-10-17T05:37:00.916Z,2.05
2022-10-17T05:42:21.813Z,10.20
2022-10-17T05:47:42.803Z,9.55
2022-10-17T05:53:03.752Z,9.18
2022-10-17T06:04:19.321Z,8.25
2022-10-17T06:09:40.218Z,8.18
2022-10-17T06:15:02.013Z,8.13
2022-10-17T06:20:22.968Z,8.57
2022-10-17T06:25:43.458Z,17.58
2022-10-17T06:31:09.233Z,10.13
2022-10-17T06:36:29.900Z,12.88
2022-10-17T06:41:50.297Z,12.65
2022-10-17T06:47:16.578Z,9.35
2022-10-17T06:52:39.758Z,6.53
2022-10-17T06:58:22.311Z,5.90
2022-10-17T07:03:58.926Z,8.23
2022-10-17T07:09:20.185Z,4.35
2022-10-17T07:14:41.267Z,7.75
2022-10-17T07:20:02.134Z,10.90
2022-10-17T07:25:26.901Z,3.25
2022-10-17T07:30:53.803Z,5.53
2022-10-17T07:36:15.487Z,6.70
2022-10-17T07:41:36.549Z,6.10
2022-10-17T07:46:58.222Z,8.52
2022-10-17T07:52:19.152Z,4.72
2022-10-17T07:57:40.423Z,7.05
2022-10-17T08:03:00.871Z,8.27
2022-10-17T08:08:21.380Z,6.10
2022-10-17T08:13:42.652Z,8.68
2022-10-17T08:19:03.800Z,14.50
2022-10-17T08:24:24.786Z,8.60
2022-10-17T08:29:48.345Z,4.85
2022-10-17T08:35:09.697Z,5.35
2022-10-17T08:40:33.773Z,6.07
2022-10-17T08:46:05.159Z,10.77
2022-10-17T08:51:31.844Z,6.93
2022-10-17T08:56:55.356Z,5.40
2022-10-17T09:02:44.582Z,8.20
2022-10-17T09:08:17.528Z,7.72
2022-10-17T09:13:58.614Z,7.95
2022-10-17T09:19:36.300Z,3.63
2022-10-17T09:25:05.240Z,6.38
2022-10-17T09:30:44.787Z,13.52
2022-10-17T09:36:16.252Z,8.93
2022-10-17T09:41:45.902Z,6.95
2022-10-17T09:47:24.773Z,13.00
2022-10-17T09:52:47.715Z,8.07
2022-10-17T09:58:10.311Z,10.45
2022-10-17T10:03:30.804Z,20.83
2022-10-17T10:08:54.593Z,15.57
2022-10-17T10:14:37.610Z,12.07
2022-10-17T10:19:58.407Z,13.27
2022-10-17T10:25:19.565Z,13.38
2022-10-17T10:30:40.153Z,13.38
2022-10-17T10:36:04.090Z,13.95
2022-10-17T10:41:27.707Z,19.05
2022-10-17T10:46:48.118Z,17.17
2022-10-17T10:52:15.797Z,23.00
2022-10-17T10:57:38.664Z,24.10
2022-10-17T11:03:12.611Z,17.00
2022-10-17T11:09:00.196Z,22.93
2022-10-17T11:14:44.431Z,15.52
2022-10-17T11:20:11.855Z,16.65
2022-10-17T11:25:35.494Z,26.27
2022-10-17T11:31:07.991Z,22.60
2022-10-17T11:36:32.375Z,21.80
2022-10-17T11:42:13.974Z,22.73
2022-10-17T11:47:46.713Z,26.83
2022-10-17T11:53:20.547Z,23.77
2022-10-17T11:59:06.361Z,25.50
2022-10-17T12:04:36.107Z,21.45
2022-10-17T12:10:05.139Z,28.55
2022-10-17T12:15:26.196Z,30.58
2022-10-17T12:21:00.537Z,27.25
2022-10-17T12:26:29.998Z,21.95
2022-10-17T12:31:50.423Z,24.63
2022-10-17T12:37:11.766Z,26.42
2022-10-17T12:42:33.604Z,27.30
2022-10-17T12:47:54.228Z,26.33
2022-10-17T12:53:19.300Z,21.23
2022-10-17T12:58:46.461Z,27.17
2022-10-17T13:04:10.661Z,24.73
2022-10-17T13:09:42.551Z,29.98
2022-10-17T13:15:06.764Z,21.33
2022-10-17T13:20:31.599Z,42.35
2022-10-17T13:26:14.358Z,26.33
2022-10-17T13:31:38.080Z,25.98
2022-10-17T13:37:08.134Z,21.48
2022-10-17T13:42:39.376Z,32.08
2022-10-17T13:48:04.348Z,22.92
2022-10-17T13:53:30.960Z,30.13
2022-10-17T13:58:58.675Z,32.15
2022-10-17T14:04:20.326Z,34.67
2022-10-17T14:09:41.369Z,24.63
2022-10-17T14:15:13.797Z,35.08
2022-10-17T14:21:08.201Z,18.65
2022-10-17T14:26:21.729Z,19.85
2022-10-17T14:31:42.462Z,23.63
2022-10-17T14:37:09.961Z,24.63
2022-10-17T14:42:30.315Z,25.55
2022-10-17T14:47:52.790Z,22.52
2022-10-17T14:53:12.992Z,24.15
2022-10-17T14:58:33.822Z,19.90
2022-10-17T15:03:54.465Z,22.88
2022-10-17T15:09:14.823Z,26.88
2022-10-17T15:14:35.331Z,19.45
2022-10-17T15:19:57.294Z,18.30
2022-10-17T15:25:17.949Z,12.05
2022-10-17T15:30:38.669Z,18.40
2022-10-17T15:35:59.678Z,30.08
2022-10-17T15:41:20.821Z,13.73
2022-10-17T15:46:41.994Z,26.17
2022-10-17T15:52:02.616Z,26.80
2022-10-17T15:57:27.138Z,24.25
2022-10-17T16:02:49.164Z,16.10
2022-10-17T16:08:09.859Z,25.75
2022-10-17T16:13:30.640Z,14.75
2022-10-17T16:18:51.033Z,24.92
2022-10-17T16:24:12.663Z,18.75
2022-10-17T16:29:33.513Z,20.60
2022-10-17T16:34:54.201Z,12.95
2022-10-17T16:40:15.893Z,37.03
2022-10-17T16:45:36.581Z,31.30
2022-10-17T16:50:57.086Z,23.67
2022-10-17T16:56:19.741Z,16.42
2022-10-17T17:01:40.721Z,22.58
2022-10-17T17:07:01.297Z,23.02
2022-10-17T17:12:22.534Z,24.45
2022-10-17T17:17:51.277Z,16.27
2022-10-17T17:23:15.908Z,30.95
2022-10-17T17:28:37.445Z,20.07
2022-10-17T17:33:58.974Z,26.73
2022-10-17T17:39:19.644Z,19.60
2022-10-17T17:44:40.032Z,23.65
2022-10-17T17:50:00.401Z,21.90
2022-10-17T17:55:21.056Z,25.10
2022-10-17T18:00:42.066Z,21.20
2022-10-17T18:06:05.581Z,22.30
2022-10-17T18:11:27.286Z,20.83
2022-10-17T18:16:48.171Z,27.52
2022-10-17T18:22:09.392Z,27.77
2022-10-17T18:27:29.727Z,19.83
2022-10-17T18:32:50.305Z,24.73
2022-10-17T18:38:10.800Z,18.48
2022-10-17T18:43:32.956Z,26.83
2022-10-17T18:48:53.938Z,20.42
2022-10-17T18:54:17.157Z,24.50
2022-10-17T18:59:37.686Z,27.15
2022-10-17T19:04:58.405Z,35.47
2022-10-17T19:10:19.419Z,25.73
2022-10-17T19:15:40.132Z,32.17
2022-10-17T19:21:09.264Z,24.38
2022-10-17T19:26:33.324Z,32.25
2022-10-17T19:37:14.672Z,23.98
2022-10-17T19:42:35.408Z,25.75
2022-10-17T19:47:55.931Z,28.77
2022-10-17T19:53:17.632Z,36.80
2022-10-17T19:58:45.153Z,26.45
2022-10-17T20:04:06.554Z,32.97
2022-10-17T20:09:26.975Z,35.40
2022-10-17T20:14:47.568Z,33.95
2022-10-17T20:20:08.879Z,24.92
2022-10-17T20:25:30.417Z,33.35
2022-10-17T20:30:50.931Z,26.35
2022-10-17T20:36:13.535Z,27.13
2022-10-17T20:41:34.632Z,34.25
2022-10-17T20:47:02.205Z,25.70
2022-10-17T20:52:22.819Z,29.50
2022-10-17T20:57:43.570Z,23.58
2022-10-17T21:03:04.002Z,20.83
2022-10-17T21:08:24.753Z,29.92
2022-10-17T21:13:46.803Z,28.73
2022-10-17T21:19:07.505Z,29.40
2022-10-17T21:24:28.033Z,25.23
2022-10-17T21:29:48.734Z,30.10
2022-10-17T21:35:09.165Z,31.77
2022-10-17T21:40:29.970Z,25.52
2022-10-17T21:45:51.190Z,34.28
2022-10-17T21:51:15.361Z,18.77
2022-10-17T21:56:36.690Z,24.45
2022-10-17T22:01:57.123Z,29.92
2022-10-17T22:07:17.821Z,25.08
2022-10-17T22:12:38.281Z,39.22
2022-10-17T22:17:58.627Z,31.55
2022-10-17T22:23:19.224Z,17.08
2022-10-17T22:28:41.058Z,26.33
2022-10-17T22:34:01.858Z,28.95
2022-10-17T22:39:22.518Z,26.80
2022-10-17T22:44:43.515Z,26.90
2022-10-17T22:50:04.068Z,28.92
2022-10-17T22:55:24.754Z,27.33
2022-10-17T23:00:45.460Z,26.15
2022-10-17T23:06:06.229Z,31.60
2022-10-17T23:11:26.650Z,28.10
2022-10-17T23:16:47.124Z,35.17
2022-10-17T23:22:08.386Z,17.73
2022-10-17T23:32:50.679Z,23.23
2022-10-17T23:38:11.389Z,42.30
2022-10-17T23:43:34.287Z,29.23
2022-10-17T23:48:55.057Z,33.22
2022-10-17T23:54:15.756Z,23.80
2022-10-17T23:59:36.207Z,30.38
